San Diego State University, California
Current Conditions -  °F | °C
As of 3:56 PM on Friday 28 Nov 2014 (Local Time) from KNRS Reporting Station
Clear Clear  
Wind Chill: 69°   Ceiling: Unl
Heat Index: 69°   Visibility: 10mi
Dew Point: 58°   Wind: 7mph
Humidity: 68%   Direction: 230°SW
Pressure: 29.9"   Gusts: NA
Location:  32.6353°N, 117.099°W
Report Text: KNRS 282356Z 23006KT 10SM CLR 21/14 A2990 RMK SLP124 T02060144 10239 20206 56010
Loading
Personal Weather Stations






























Interactive Weather Map New forecast layout! Learn more

10-Day Weather Forecast

Advertisements
Track Severe Weather on mobile